createdAt,value
2019-02-23T00:00:05.126Z,77.42
2019-02-23T00:06:09.666Z,69.17
2019-02-23T00:12:13.989Z,70.12
2019-02-23T00:18:18.264Z,69.12
2019-02-23T00:24:22.506Z,73.05
2019-02-23T00:30:26.724Z,70.92
2019-02-23T00:36:31.068Z,70.92
2019-02-23T00:42:35.273Z,71.82
2019-02-23T00:48:39.685Z,76.30
2019-02-23T00:54:43.950Z,79.03
2019-02-23T01:00:48.184Z,82.27
2019-02-23T01:06:52.405Z,80.90
2019-02-23T01:12:56.642Z,96.75
2019-02-23T01:19:00.949Z,106.92
2019-02-23T01:25:05.614Z,101.85
2019-02-23T01:31:10.069Z,86.92
2019-02-23T01:37:14.317Z,86.53
2019-02-23T01:43:18.691Z,89.92
2019-02-23T01:49:22.981Z,85.95
2019-02-23T01:55:27.204Z,85.72
2019-02-23T02:01:31.522Z,85.67
2019-02-23T02:07:35.723Z,82.12
2019-02-23T02:13:40.028Z,81.28
2019-02-23T02:19:44.303Z,85.72
2019-02-23T02:25:48.493Z,86.30
2019-02-23T02:31:53.027Z,82.95
2019-02-23T02:37:57.232Z,79.80
2019-02-23T02:44:01.555Z,85.62
2019-02-23T02:50:06.610Z,85.75
2019-02-23T02:56:10.998Z,82.92
2019-02-23T03:02:15.305Z,82.80
2019-02-23T03:08:19.562Z,81.17
2019-02-23T03:14:23.774Z,79.53
2019-02-23T03:20:36.209Z,81.05
2019-02-23T03:26:34.193Z,75.95
2019-02-23T03:32:38.430Z,79.20
2019-02-23T03:38:42.736Z,76.20
2019-02-23T03:44:47.015Z,67.17
2019-02-23T03:50:51.292Z,71.72
2019-02-23T03:56:55.581Z,73.72
2019-02-23T04:02:59.864Z,70.78
2019-02-23T04:09:04.617Z,71.15
2019-02-23T04:15:09.024Z,77.25
2019-02-23T04:21:13.227Z,75.50
2019-02-23T04:27:17.424Z,79.05
2019-02-23T04:33:21.731Z,73.40
2019-02-23T04:39:25.994Z,75.60
2019-02-23T04:45:30.207Z,82.30
2019-02-23T04:51:34.513Z,74.12
2019-02-23T04:57:38.787Z,75.47
2019-02-23T05:03:43.084Z,75.37
2019-02-23T05:09:47.366Z,70.67
2019-02-23T05:15:51.737Z,73.20
2019-02-23T05:21:58.977Z,69.60
2019-02-23T05:28:03.175Z,72.05
2019-02-23T05:34:07.405Z,70.37
2019-02-23T05:40:11.643Z,73.05
2019-02-23T05:46:15.936Z,80.47
2019-02-23T05:52:20.230Z,68.40
2019-02-23T05:58:24.469Z,67.97
2019-02-23T06:04:29.131Z,61.63
2019-02-23T06:10:33.407Z,64.07
2019-02-23T06:16:37.866Z,66.87
2019-02-23T06:22:42.098Z,64.30
2019-02-23T06:28:47.387Z,62.60
2019-02-23T06:34:51.658Z,59.33
2019-02-23T06:40:55.870Z,57.15
2019-02-23T06:47:00.133Z,61.93
2019-02-23T06:53:04.366Z,60.87
2019-02-23T06:59:10.528Z,61.00
2019-02-23T07:05:14.966Z,60.47
2019-02-23T07:11:19.240Z,56.57
2019-02-23T07:17:23.564Z,56.60
2019-02-23T07:23:27.750Z,57.80
2019-02-23T07:29:32.039Z,53.83
2019-02-23T07:35:36.284Z,54.25
2019-02-23T07:41:40.627Z,46.90
2019-02-23T07:47:44.824Z,47.90
2019-02-23T07:53:49.156Z,46.40
2019-02-23T07:59:53.402Z,41.80
2019-02-23T08:05:57.804Z,41.30
2019-02-23T08:12:02.002Z,45.30
2019-02-23T08:18:06.295Z,46.80
2019-02-23T08:24:10.569Z,38.28
2019-02-23T08:30:14.867Z,39.73
2019-02-23T08:36:19.061Z,40.43
2019-02-23T08:42:23.275Z,36.60
2019-02-23T08:48:27.567Z,35.70
2019-02-23T08:54:31.873Z,40.17
2019-02-23T09:00:36.171Z,36.75
2019-02-23T09:06:40.402Z,32.28
2019-02-23T09:12:44.595Z,30.92
2019-02-23T09:18:48.957Z,30.40
2019-02-23T09:24:53.203Z,28.52
2019-02-23T09:30:57.523Z,31.55
2019-02-23T09:37:01.737Z,26.05
2019-02-23T09:43:06.083Z,24.77
2019-02-23T09:49:10.361Z,24.23
2019-02-23T09:55:14.625Z,23.12
2019-02-23T10:01:18.848Z,17.05
2019-02-23T10:07:23.174Z,17.85
2019-02-23T10:13:27.400Z,17.30
2019-02-23T10:19:31.730Z,15.23
2019-02-23T10:25:36.020Z,11.12
2019-02-23T10:31:40.334Z,12.93
2019-02-23T10:38:05.646Z,12.53
2019-02-23T10:44:09.948Z,14.50
2019-02-23T10:50:16.740Z,13.93
2019-02-23T10:56:20.971Z,12.93
2019-02-23T11:02:25.280Z,14.35
2019-02-23T11:08:29.484Z,14.28
2019-02-23T11:14:33.774Z,15.98
2019-02-23T11:20:38.064Z,13.38
2019-02-23T11:26:42.277Z,14.70
2019-02-23T11:32:46.650Z,13.68
2019-02-23T11:38:50.963Z,14.35
2019-02-23T11:44:55.173Z,12.70
2019-02-23T11:50:59.453Z,14.10
2019-02-23T11:57:03.754Z,14.60
2019-02-23T12:03:08.053Z,15.38
2019-02-23T12:09:12.300Z,11.53
2019-02-23T12:15:16.526Z,15.20
2019-02-23T12:21:20.812Z,13.55
2019-02-23T12:27:24.999Z,14.55
2019-02-23T12:33:29.347Z,14.13
2019-02-23T12:39:33.633Z,18.62
2019-02-23T12:45:37.913Z,12.60
2019-02-23T12:51:42.125Z,12.03
2019-02-23T12:57:46.427Z,17.07
2019-02-23T13:03:50.724Z,10.72
2019-02-23T13:09:55.884Z,10.75
2019-02-23T13:16:04.101Z,12.13
2019-02-23T13:22:35.306Z,14.35
2019-02-23T13:28:52.213Z,12.78
2019-02-23T13:35:30.059Z,12.55
2019-02-23T13:41:55.218Z,12.35
2019-02-23T13:48:36.239Z,13.72
2019-02-23T13:55:17.804Z,14.13
2019-02-23T14:01:45.268Z,13.13
2019-02-23T14:08:21.752Z,12.63
2019-02-23T14:15:06.181Z,11.85
2019-02-23T14:21:56.140Z,10.48
2019-02-23T14:28:08.759Z,11.30
2019-02-23T14:34:34.354Z,12.60
2019-02-23T14:41:09.089Z,13.95
2019-02-23T14:47:45.594Z,13.18
2019-02-23T14:54:04.758Z,11.22
2019-02-23T15:00:59.326Z,12.95
2019-02-23T15:07:42.068Z,11.55
2019-02-23T15:14:24.546Z,8.78
2019-02-23T15:21:04.890Z,8.63
2019-02-23T15:27:24.042Z,10.43
2019-02-23T15:34:09.627Z,11.12
2019-02-23T15:40:43.035Z,15.43
2019-02-23T15:47:42.799Z,11.40
2019-02-23T15:53:47.220Z,13.25
2019-02-23T15:59:51.710Z,14.18
2019-02-23T16:05:56.018Z,13.83
2019-02-23T16:12:00.434Z,13.08
2019-02-23T16:18:04.950Z,16.32
2019-02-23T16:24:09.204Z,13.83
2019-02-23T16:30:13.593Z,14.43
2019-02-23T16:36:17.827Z,14.40
2019-02-23T16:42:22.183Z,13.98
2019-02-23T16:48:26.549Z,19.62
2019-02-23T16:54:30.846Z,21.35
2019-02-23T17:00:35.169Z,24.47
2019-02-23T17:06:39.497Z,27.00
2019-02-23T17:12:43.795Z,25.50
2019-02-23T17:18:48.035Z,31.37
2019-02-23T17:24:52.292Z,32.33
2019-02-23T17:30:56.623Z,23.30
2019-02-23T17:37:00.983Z,26.10
2019-02-23T17:43:05.391Z,21.12
2019-02-23T17:49:09.726Z,23.52
2019-02-23T17:55:14.036Z,26.20
2019-02-23T18:01:18.320Z,23.18
2019-02-23T18:07:22.604Z,21.25
2019-02-23T18:13:26.866Z,19.65
2019-02-23T18:19:31.165Z,23.70
2019-02-23T18:25:35.476Z,31.77
2019-02-23T18:31:39.781Z,30.88
2019-02-23T18:37:44.042Z,29.63
2019-02-23T18:43:48.320Z,28.32
2019-02-23T18:49:53.445Z,26.75
2019-02-23T18:55:57.726Z,25.68
2019-02-23T19:02:02.058Z,26.23
2019-02-23T19:08:06.698Z,27.85
2019-02-23T19:14:10.960Z,30.90
2019-02-23T19:20:15.410Z,27.60
2019-02-23T19:26:19.621Z,27.27
2019-02-23T19:32:23.834Z,24.20
2019-02-23T19:38:28.009Z,25.30
2019-02-23T19:44:32.411Z,22.60
2019-02-23T19:50:40.155Z,23.95
2019-02-23T19:56:46.844Z,24.15
2019-02-23T20:02:50.425Z,23.95
2019-02-23T20:08:54.691Z,25.32
2019-02-23T20:14:58.887Z,22.25
2019-02-23T20:21:03.158Z,28.35
2019-02-23T20:27:07.492Z,26.73
2019-02-23T20:33:11.739Z,24.90
2019-02-23T20:39:15.947Z,24.37
2019-02-23T20:45:20.134Z,24.23
2019-02-23T20:51:24.427Z,25.85
2019-02-23T20:57:28.631Z,26.15
2019-02-23T21:03:32.801Z,27.62
2019-02-23T21:09:37.124Z,27.42
2019-02-23T21:15:41.325Z,26.77
2019-02-23T21:21:45.746Z,24.23
2019-02-23T21:27:50.026Z,25.30
2019-02-23T21:33:54.320Z,24.92
2019-02-23T21:39:58.560Z,22.80
2019-02-23T21:46:02.804Z,23.87
2019-02-23T21:52:07.008Z,22.17
2019-02-23T21:58:11.477Z,21.80
2019-02-23T22:04:15.641Z,25.05
2019-02-23T22:10:20.008Z,24.27
2019-02-23T22:16:24.312Z,24.52
2019-02-23T22:22:28.604Z,25.40
2019-02-23T22:28:32.913Z,26.85
2019-02-23T22:34:37.164Z,33.53
2019-02-23T22:40:41.458Z,27.70
2019-02-23T22:46:45.666Z,27.17
2019-02-23T22:52:49.878Z,26.97
2019-02-23T22:58:54.177Z,25.27
2019-02-23T23:04:58.538Z,25.77
2019-02-23T23:11:02.801Z,26.68
2019-02-23T23:17:07.013Z,27.73
2019-02-23T23:23:11.289Z,26.50
2019-02-23T23:29:15.485Z,26.33
2019-02-23T23:35:19.877Z,27.57
2019-02-23T23:41:24.087Z,27.37
2019-02-23T23:47:28.350Z,26.45
2019-02-23T23:53:32.544Z,24.77
2019-02-23T23:59:36.781Z,27.40
